Time,TemperatureF,DewpointF,PressureIn,WindDirection,WindDirectionDegrees,WindSpeedMPH,WindSpeedGustMPH,Humidity,HourlyPrecipIn,Conditions,Clouds,dailyrainin,SoftwareType,DateUTC
2013-01-06 00:00:00,49.4,45.7,30.11,SW,222,13.0,20.0,87,0.01,,,0.00,WUHU216DAVISVP2,2013-01-06 08:00:00,
2013-01-06 00:05:00,49.3,45.9,30.11,WSW,248,6.0,18.0,88,0.02,,,0.01,WUHU216DAVISVP2,2013-01-06 08:05:00,
2013-01-06 00:10:00,49.1,46.0,30.12,SW,236,5.0,17.0,89,0.03,,,0.02,WUHU216DAVISVP2,2013-01-06 08:10:00,
2013-01-06 00:15:00,49.0,46.2,30.12,SSW,200,4.0,13.0,90,0.04,,,0.03,WUHU216DAVISVP2,2013-01-06 08:15:00,
2013-01-06 00:20:00,48.9,46.1,30.12,SW,215,4.0,13.0,90,0.05,,,0.04,WUHU216DAVISVP2,2013-01-06 08:20:00,
2013-01-06 00:25:00,48.8,46.2,30.12,South,188,10.0,12.0,91,0.06,,,0.05,WUHU216DAVISVP2,2013-01-06 08:25:00,
2013-01-06 00:30:00,48.7,46.1,30.12,SSW,202,6.0,12.0,91,0.07,,,0.06,WUHU216DAVISVP2,2013-01-06 08:30:00,
2013-01-06 00:35:00,48.5,46.2,30.12,SSW,213,2.0,9.0,92,0.08,,,0.07,WUHU216DAVISVP2,2013-01-06 08:35:00,
2013-01-06 00:40:00,48.4,46.1,30.12,SSW,196,4.0,10.0,92,0.08,,,0.07,WUHU216DAVISVP2,2013-01-06 08:40:00,
2013-01-06 00:45:00,48.3,46.3,30.12,South,169,4.0,10.0,93,0.09,,,0.08,WUHU216DAVISVP2,2013-01-06 08:45:00,
2013-01-06 00:50:00,48.2,46.2,30.11,South,184,1.0,9.0,93,0.08,,,0.08,WUHU216DAVISVP2,2013-01-06 08:50:00,
2013-01-06 00:55:00,48.2,47.7,30.11,South,175,4.0,9.0,98,0.09,,,0.09,WUHU216DAVISVP2,2013-01-06 08:55:00,
2013-01-06 01:00:00,48.2,47.6,30.11,South,172,4.0,8.0,98,0.09,,,0.09,WUHU216DAVISVP2,2013-01-06 09:00:00,
2013-01-06 01:05:00,48.2,47.7,30.11,SE,144,5.0,7.0,98,0.08,,,0.09,WUHU216DAVISVP2,2013-01-06 09:05:00,
2013-01-06 01:10:00,48.1,46.2,30.11,SSE,159,6.0,8.0,93,0.07,,,0.09,WUHU216DAVISVP2,2013-01-06 09:10:00,
2013-01-06 01:15:00,47.9,46.3,30.12,SE,134,4.0,8.0,94,0.06,,,0.09,WUHU216DAVISVP2,2013-01-06 09:15:00,
2013-01-06 01:20:00,47.8,46.2,30.11,SE,146,2.0,8.0,94,0.06,,,0.10,WUHU216DAVISVP2,2013-01-06 09:20:00,
2013-01-06 01:25:00,47.7,46.1,30.10,SE,138,7.0,8.0,94,0.05,,,0.10,WUHU216DAVISVP2,2013-01-06 09:25:00,
2013-01-06 01:30:00,47.6,45.9,30.11,SSE,151,8.0,9.0,94,0.04,,,0.10,WUHU216DAVISVP2,2013-01-06 09:30:00,
2013-01-06 01:35:00,47.7,46.1,30.11,SE,140,7.0,11.0,94,0.03,,,0.10,WUHU216DAVISVP2,2013-01-06 09:35:00,
2013-01-06 01:40:00,47.7,46.0,30.12,SSE,162,10.0,12.0,94,0.04,,,0.11,WUHU216DAVISVP2,2013-01-06 09:40:00,
2013-01-06 01:45:00,47.7,46.0,30.11,SSE,150,7.0,12.0,94,0.03,,,0.11,WUHU216DAVISVP2,2013-01-06 09:45:00,
2013-01-06 01:51:00,47.9,46.2,30.11,SE,140,5.0,11.0,94,0.03,,,0.11,WUHU216DAVISVP2,2013-01-06 09:51:00,
2013-01-06 01:56:00,47.8,46.1,30.12,ESE,108,4.0,8.0,94,0.03,,,0.12,WUHU216DAVISVP2,2013-01-06 09:56:00,
2013-01-06 02:00:00,47.8,46.1,30.12,SE,126,5.0,8.0,94,0.04,,,0.13,WUHU216DAVISVP2,2013-01-06 10:00:00,
2013-01-06 02:05:00,47.8,46.1,30.12,SE,141,5.0,8.0,94,0.04,,,0.13,WUHU216DAVISVP2,2013-01-06 10:05:00,
2013-01-06 02:10:00,47.8,46.1,30.11,SSE,148,2.0,8.0,94,0.04,,,0.13,WUHU216DAVISVP2,2013-01-06 10:10:00,
2013-01-06 02:15:00,47.8,46.1,30.12,SE,144,9.0,11.0,94,0.04,,,0.13,WUHU216DAVISVP2,2013-01-06 10:15:00,
2013-01-06 02:21:00,47.8,46.1,30.12,SE,133,1.0,11.0,94,0.03,,,0.13,WUHU216DAVISVP2,2013-01-06 10:21:00,
2013-01-06 02:25:00,47.7,46.1,30.12,SE,146,7.0,10.0,94,0.03,,,0.13,WUHU216DAVISVP2,2013-01-06 10:25:00,
2013-01-06 02:30:00,47.6,46.0,30.11,SSE,154,5.0,13.0,94,0.03,,,0.13,WUHU216DAVISVP2,2013-01-06 10:30:00,
2013-01-06 02:36:00,47.6,46.0,30.12,SE,138,4.0,13.0,94,0.03,,,0.13,WUHU216DAVISVP2,2013-01-06 10:36:00,
2013-01-06 02:41:00,47.6,46.0,30.12,SE,141,8.0,12.0,94,0.02,,,0.13,WUHU216DAVISVP2,2013-01-06 10:41:00,
2013-01-06 02:46:00,47.5,45.9,30.12,South,182,6.0,12.0,94,0.02,,,0.13,WUHU216DAVISVP2,2013-01-06 10:46:00,
2013-01-06 02:51:00,47.4,45.8,30.12,SSE,159,5.0,8.0,94,0.02,,,0.13,WUHU216DAVISVP2,2013-01-06 10:51:00,
2013-01-06 02:56:00,47.3,45.7,30.12,SSE,161,5.0,10.0,94,0.01,,,0.13,WUHU216DAVISVP2,2013-01-06 10:56:00,
2013-01-06 03:01:00,47.2,45.6,30.13,South,170,7.0,11.0,94,0.00,,,0.13,WUHU216DAVISVP2,2013-01-06 11:01:00,
2013-01-06 03:06:00,47.0,45.4,30.13,SSE,166,4.0,11.0,94,0.00,,,0.13,WUHU216DAVISVP2,2013-01-06 11:06:00,
2013-01-06 03:11:00,46.8,45.1,30.13,SSW,192,3.0,10.0,94,0.00,,,0.13,WUHU216DAVISVP2,2013-01-06 11:11:00,
2013-01-06 03:16:00,46.7,45.0,30.13,SSE,168,4.0,6.0,94,0.00,,,0.13,WUHU216DAVISVP2,2013-01-06 11:16:00,
2013-01-06 03:21:00,46.8,45.1,30.13,South,190,9.0,11.0,94,0.00,,,0.13,WUHU216DAVISVP2,2013-01-06 11:21:00,
2013-01-06 03:26:00,47.0,45.3,30.13,SSE,167,2.0,13.0,94,0.00,,,0.13,WUHU216DAVISVP2,2013-01-06 11:26:00,
2013-01-06 03:31:00,46.8,44.8,30.13,South,182,2.0,13.0,93,0.00,,,0.13,WUHU216DAVISVP2,2013-01-06 11:31:00,
2013-01-06 03:36:00,46.5,44.5,30.13,SE,133,2.0,8.0,93,0.00,,,0.13,WUHU216DAVISVP2,2013-01-06 11:36:00,
2013-01-06 03:41:00,46.0,44.0,30.13,SE,126,4.0,8.0,93,0.00,,,0.13,WUHU216DAVISVP2,2013-01-06 11:41:00,
2013-01-06 03:46:00,45.7,44.0,30.13,SSE,153,2.0,8.0,94,0.00,,,0.13,WUHU216DAVISVP2,2013-01-06 11:46:00,
2013-01-06 03:51:00,45.7,44.0,30.13,SSE,155,2.0,8.0,94,0.00,,,0.13,WUHU216DAVISVP2,2013-01-06 11:51:00,
2013-01-06 03:55:00,45.7,44.3,30.13,SE,131,7.0,8.0,95,0.00,,,0.13,WUHU216DAVISVP2,2013-01-06 11:55:00,
2013-01-06 04:01:00,45.8,44.4,30.13,SSE,156,2.0,8.0,95,0.00,,,0.13,WUHU216DAVISVP2,2013-01-06 12:01:00,
2013-01-06 04:05:00,45.6,44.2,30.13,SE,146,2.0,8.0,95,0.00,,,0.13,WUHU216DAVISVP2,2013-01-06 12:05:00,
2013-01-06 04:10:00,45.4,44.0,30.12,SSE,164,5.0,8.0,95,0.00,,,0.13,WUHU216DAVISVP2,2013-01-06 12:10:00,
2013-01-06 04:15:00,45.2,43.8,30.12,SSE,158,5.0,6.0,95,0.00,,,0.13,WUHU216DAVISVP2,2013-01-06 12:15:00,
2013-01-06 04:20:00,45.1,44.0,30.12,ESE,123,4.0,7.0,96,0.00,,,0.13,WUHU216DAVISVP2,2013-01-06 12:20:00,
2013-01-06 04:25:00,45.0,43.9,30.13,SE,138,4.0,11.0,96,0.00,,,0.13,WUHU216DAVISVP2,2013-01-06 12:25:00,
2013-01-06 04:30:00,44.7,43.6,30.12,SE,142,6.0,11.0,96,0.00,,,0.13,WUHU216DAVISVP2,2013-01-06 12:30:00,
2013-01-06 04:35:00,44.5,43.4,30.12,SE,142,5.0,9.0,96,0.00,,,0.13,WUHU216DAVISVP2,2013-01-06 12:35:00,
2013-01-06 04:40:00,44.7,43.6,30.12,SSE,155,4.0,10.0,96,0.00,,,0.13,WUHU216DAVISVP2,2013-01-06 12:40:00,
2013-01-06 04:45:00,44.7,43.6,30.12,SE,137,5.0,10.0,96,0.00,,,0.13,WUHU216DAVISVP2,2013-01-06 12:45:00,
2013-01-06 04:50:00,44.6,43.5,30.12,SSE,161,2.0,9.0,96,0.00,,,0.13,WUHU216DAVISVP2,2013-01-06 12:50:00,
2013-01-06 04:55:00,44.6,43.5,30.12,SSE,155,4.0,9.0,96,0.00,,,0.13,WUHU216DAVISVP2,2013-01-06 12:55:00,
2013-01-06 05:00:00,44.6,43.5,30.12,SE,135,6.0,9.0,96,0.00,,,0.13,WUHU216DAVISVP2,2013-01-06 13:00:00,
2013-01-06 05:05:00,44.6,43.5,30.12,SE,124,6.0,8.0,96,0.00,,,0.13,WUHU216DAVISVP2,2013-01-06 13:05:00,
2013-01-06 05:10:00,44.6,43.5,30.11,SE,134,5.0,10.0,96,0.00,,,0.13,WUHU216DAVISVP2,2013-01-06 13:10:00,
2013-01-06 05:15:00,44.8,43.7,30.12,SSE,162,5.0,14.0,96,0.00,,,0.13,WUHU216DAVISVP2,2013-01-06 13:15:00,
2013-01-06 05:20:00,44.9,43.8,30.12,SE,130,5.0,14.0,96,0.00,,,0.13,WUHU216DAVISVP2,2013-01-06 13:20:00,
2013-01-06 05:25:00,45.0,43.9,30.11,South,180,2.0,9.0,96,0.00,,,0.13,WUHU216DAVISVP2,2013-01-06 13:25:00,
2013-01-06 05:30:00,45.2,44.1,30.11,SSE,162,7.0,8.0,96,0.00,,,0.13,WUHU216DAVISVP2,2013-01-06 13:30:00,
2013-01-06 05:35:00,45.3,44.2,30.12,SSE,156,6.0,9.0,96,0.00,,,0.13,WUHU216DAVISVP2,2013-01-06 13:35:00,
2013-01-06 05:40:00,45.5,44.4,30.12,SSE,159,4.0,10.0,96,0.00,,,0.13,WUHU216DAVISVP2,2013-01-06 13:40:00,
2013-01-06 05:45:00,45.7,44.6,30.12,SE,142,6.0,10.0,96,0.00,,,0.13,WUHU216DAVISVP2,2013-01-06 13:45:00,
2013-01-06 05:50:00,45.8,44.7,30.12,SSE,167,2.0,9.0,96,0.00,,,0.13,WUHU216DAVISVP2,2013-01-06 13:50:00,
2013-01-06 05:55:00,45.9,44.8,30.12,SSE,165,5.0,9.0,96,0.00,,,0.13,WUHU216DAVISVP2,2013-01-06 13:55:00,
2013-01-06 06:00:00,45.9,44.5,30.12,SSE,155,4.0,9.0,95,0.00,,,0.13,WUHU216DAVISVP2,2013-01-06 14:00:00,
2013-01-06 06:05:00,45.9,44.5,30.12,SSE,156,4.0,10.0,95,0.00,,,0.13,WUHU216DAVISVP2,2013-01-06 14:05:00,
2013-01-06 06:10:00,45.9,44.5,30.12,SE,144,4.0,10.0,95,0.00,,,0.13,WUHU216DAVISVP2,2013-01-06 14:10:00,
2013-01-06 06:15:00,45.9,44.5,30.12,SE,126,2.0,8.0,95,0.00,,,0.13,WUHU216DAVISVP2,2013-01-06 14:15:00,
2013-01-06 06:20:00,45.9,44.5,30.12,ESE,123,6.0,9.0,95,0.00,,,0.13,WUHU216DAVISVP2,2013-01-06 14:20:00,
2013-01-06 06:25:00,45.8,44.1,30.11,South,171,4.0,9.0,94,0.00,,,0.13,WUHU216DAVISVP2,2013-01-06 14:25:00,
2013-01-06 06:30:00,45.8,44.1,30.11,SSE,165,1.0,6.0,94,0.00,,,0.13,WUHU216DAVISVP2,2013-01-06 14:30:00,
2013-01-06 06:35:00,45.8,44.1,30.11,SSE,154,5.0,9.0,94,0.00,,,0.13,WUHU216DAVISVP2,2013-01-06 14:35:00,
2013-01-06 06:40:00,45.7,44.1,30.12,SE,137,1.0,9.0,94,0.00,,,0.13,WUHU216DAVISVP2,2013-01-06 14:40:00,
2013-01-06 06:45:00,45.7,44.1,30.12,SE,138,6.0,8.0,94,0.00,,,0.13,WUHU216DAVISVP2,2013-01-06 14:45:00,
2013-01-06 06:50:00,45.7,44.0,30.12,SSE,147,7.0,8.0,94,0.00,,,0.13,WUHU216DAVISVP2,2013-01-06 14:50:00,
2013-01-06 06:55:00,45.6,43.9,30.12,SSE,148,6.0,8.0,94,0.00,,,0.13,WUHU216DAVISVP2,2013-01-06 14:55:00,
2013-01-06 07:00:00,45.6,43.9,30.12,SSE,167,0.0,8.0,94,0.00,,,0.13,WUHU216DAVISVP2,2013-01-06 15:00:00,
2013-01-06 07:05:00,45.6,43.9,30.12,SSE,148,2.0,8.0,94,0.00,,,0.13,WUHU216DAVISVP2,2013-01-06 15:05:00,
2013-01-06 07:10:00,45.5,43.9,30.12,SSE,152,4.0,6.0,94,0.00,,,0.13,WUHU216DAVISVP2,2013-01-06 15:10:00,
2013-01-06 07:15:00,45.5,44.2,30.12,SE,144,0.0,7.0,95,0.00,,,0.13,WUHU216DAVISVP2,2013-01-06 15:15:00,
2013-01-06 07:20:00,45.5,44.1,30.12,South,181,2.0,7.0,95,0.00,,,0.13,WUHU216DAVISVP2,2013-01-06 15:20:00,
2013-01-06 07:25:00,45.7,44.3,30.12,SSE,165,2.0,9.0,95,0.00,,,0.13,WUHU216DAVISVP2,2013-01-06 15:25:00,
2013-01-06 07:30:00,45.8,44.1,30.12,South,175,6.0,9.0,94,0.00,,,0.13,WUHU216DAVISVP2,2013-01-06 15:30:00,
2013-01-06 07:35:00,45.9,44.2,30.12,SSE,150,1.0,8.0,94,0.00,,,0.13,WUHU216DAVISVP2,2013-01-06 15:35:00,
2013-01-06 07:40:00,45.8,44.1,30.12,SSE,160,2.0,8.0,94,0.00,,,0.13,WUHU216DAVISVP2,2013-01-06 15:40:00,
2013-01-06 07:45:00,45.8,44.1,30.12,SSE,164,4.0,7.0,94,0.00,,,0.13,WUHU216DAVISVP2,2013-01-06 15:45:00,
2013-01-06 07:50:00,45.9,44.2,30.12,SSE,161,0.0,7.0,94,0.00,,,0.13,WUHU216DAVISVP2,2013-01-06 15:50:00,
2013-01-06 07:55:00,46.0,44.3,30.12,SSE,167,4.0,7.0,94,0.00,,,0.13,WUHU216DAVISVP2,2013-01-06 15:55:00,
2013-01-06 08:00:00,46.0,44.3,30.12,SSE,160,5.0,7.0,94,0.00,,,0.13,WUHU216DAVISVP2,2013-01-06 16:00:00,
2013-01-06 08:05:00,46.1,44.4,30.12,SE,142,1.0,7.0,94,0.00,,,0.13,WUHU216DAVISVP2,2013-01-06 16:05:00,
2013-01-06 08:10:00,46.2,44.5,30.12,SSE,167,0.0,7.0,94,0.00,,,0.13,WUHU216DAVISVP2,2013-01-06 16:10:00,
2013-01-06 08:15:00,46.3,44.6,30.12,SSE,152,4.0,7.0,94,0.00,,,0.13,WUHU216DAVISVP2,2013-01-06 16:15:00,
2013-01-06 08:20:00,46.4,44.4,30.12,SSE,163,5.0,9.0,93,0.00,,,0.13,WUHU216DAVISVP2,2013-01-06 16:20:00,
2013-01-06 08:25:00,46.7,44.7,30.12,SSE,158,4.0,9.0,93,0.00,,,0.13,WUHU216DAVISVP2,2013-01-06 16:25:00,
2013-01-06 08:30:00,47.2,45.2,30.12,South,180,6.0,8.0,93,0.00,,,0.13,WUHU216DAVISVP2,2013-01-06 16:30:00,
2013-01-06 08:35:00,47.9,45.6,30.13,SSE,165,5.0,7.0,92,0.00,,,0.13,WUHU216DAVISVP2,2013-01-06 16:35:00,
2013-01-06 08:40:00,48.2,45.7,30.13,South,178,6.0,10.0,91,0.00,,,0.13,WUHU216DAVISVP2,2013-01-06 16:40:00,
2013-01-06 08:45:00,48.3,45.5,30.12,South,169,7.0,10.0,90,0.00,,,0.13,WUHU216DAVISVP2,2013-01-06 16:45:00,
2013-01-06 08:50:00,48.3,45.5,30.12,SSE,163,7.0,13.0,90,0.00,,,0.13,WUHU216DAVISVP2,2013-01-06 16:50:00,
2013-01-06 08:55:00,48.5,45.4,30.12,SSE,165,8.0,13.0,89,0.00,,,0.13,WUHU216DAVISVP2,2013-01-06 16:55:00,
2013-01-06 09:00:00,48.8,46.0,30.13,SSE,165,7.0,11.0,90,0.00,,,0.13,WUHU216DAVISVP2,2013-01-06 17:00:00,
2013-01-06 09:05:00,49.1,46.0,30.13,South,177,5.0,12.0,89,0.00,,,0.13,WUHU216DAVISVP2,2013-01-06 17:05:00,
2013-01-06 09:10:00,49.3,45.9,30.14,SSE,157,5.0,12.0,88,0.00,,,0.13,WUHU216DAVISVP2,2013-01-06 17:10:00,
2013-01-06 09:15:00,49.8,46.4,30.15,South,170,5.0,9.0,88,0.00,,,0.13,WUHU216DAVISVP2,2013-01-06 17:15:00,
2013-01-06 09:20:00,50.5,46.8,30.15,SSE,158,6.0,8.0,87,0.00,,,0.13,WUHU216DAVISVP2,2013-01-06 17:20:00,
2013-01-06 09:25:00,51.1,47.6,30.15,SE,130,8.0,10.0,88,0.00,,,0.13,WUHU216DAVISVP2,2013-01-06 17:25:00,
2013-01-06 09:30:00,51.0,46.9,30.15,SSE,151,4.0,10.0,86,0.00,,,0.13,WUHU216DAVISVP2,2013-01-06 17:30:00,
2013-01-06 09:35:00,50.9,46.8,30.16,SSE,168,1.0,10.0,86,0.00,,,0.13,WUHU216DAVISVP2,2013-01-06 17:35:00,
2013-01-06 09:40:00,50.8,46.7,30.16,SSE,166,6.0,10.0,86,0.00,,,0.13,WUHU216DAVISVP2,2013-01-06 17:40:00,
2013-01-06 09:45:00,50.6,46.6,30.16,SSE,150,7.0,9.0,86,0.00,,,0.13,WUHU216DAVISVP2,2013-01-06 17:45:00,
2013-01-06 09:50:00,50.4,46.4,30.16,SSE,153,8.0,9.0,86,0.00,,,0.13,WUHU216DAVISVP2,2013-01-06 17:50:00,
2013-01-06 09:55:00,50.1,46.4,30.16,South,176,5.0,9.0,87,0.00,,,0.13,WUHU216DAVISVP2,2013-01-06 17:55:00,
2013-01-06 10:00:00,50.1,46.1,30.16,SSE,166,5.0,10.0,86,0.00,,,0.13,WUHU216DAVISVP2,2013-01-06 18:00:00,
2013-01-06 10:05:00,50.2,46.5,30.16,SSE,155,5.0,11.0,87,0.00,,,0.13,WUHU216DAVISVP2,2013-01-06 18:05:00,
2013-01-06 10:10:00,50.2,46.2,30.16,SSE,168,4.0,11.0,86,0.00,,,0.13,WUHU216DAVISVP2,2013-01-06 18:10:00,
2013-01-06 10:15:00,50.0,46.3,30.15,SE,143,4.0,10.0,87,0.00,,,0.13,WUHU216DAVISVP2,2013-01-06 18:15:00,
2013-01-06 10:20:00,50.4,47.0,30.15,SSE,156,4.0,8.0,88,0.00,,,0.13,WUHU216DAVISVP2,2013-01-06 18:20:00,
2013-01-06 10:25:00,50.8,47.0,30.15,South,175,5.0,12.0,87,0.00,,,0.13,WUHU216DAVISVP2,2013-01-06 18:25:00,
2013-01-06 10:30:00,51.6,47.8,30.14,SE,134,4.0,12.0,87,0.00,,,0.13,WUHU216DAVISVP2,2013-01-06 18:30:00,
2013-01-06 10:35:00,51.9,47.2,30.14,SSE,161,4.0,11.0,84,0.00,,,0.13,WUHU216DAVISVP2,2013-01-06 18:35:00,
2013-01-06 10:40:00,52.3,47.9,30.14,ESE,111,4.0,11.0,85,0.00,,,0.13,WUHU216DAVISVP2,2013-01-06 18:40:00,
2013-01-06 10:45:00,52.1,46.8,30.15,South,187,9.0,9.0,82,0.00,,,0.13,WUHU216DAVISVP2,2013-01-06 18:45:00,
2013-01-06 10:50:00,52.0,47.0,30.14,SSE,159,0.0,11.0,83,0.00,,,0.13,WUHU216DAVISVP2,2013-01-06 18:50:00,
2013-01-06 10:55:00,52.1,46.8,30.14,SSE,157,6.0,11.0,82,0.00,,,0.13,WUHU216DAVISVP2,2013-01-06 18:55:00,
2013-01-06 11:00:00,52.2,47.2,30.14,SE,128,2.0,9.0,83,0.00,,,0.13,WUHU216DAVISVP2,2013-01-06 19:00:00,
2013-01-06 11:05:00,52.1,46.5,30.13,SSE,148,5.0,8.0,81,0.00,,,0.13,WUHU216DAVISVP2,2013-01-06 19:05:00,
2013-01-06 11:10:00,52.0,46.7,30.13,ESE,119,0.0,8.0,82,0.00,,,0.13,WUHU216DAVISVP2,2013-01-06 19:10:00,
2013-01-06 11:15:00,52.5,47.2,30.13,SE,138,0.0,8.0,82,0.00,,,0.13,WUHU216DAVISVP2,2013-01-06 19:15:00,
2013-01-06 11:20:00,52.5,46.9,30.13,South,173,5.0,9.0,81,0.00,,,0.13,WUHU216DAVISVP2,2013-01-06 19:20:00,
2013-01-06 11:25:00,52.6,46.6,30.13,SSE,168,5.0,9.0,80,0.00,,,0.13,WUHU216DAVISVP2,2013-01-06 19:25:00,
2013-01-06 11:30:00,52.6,46.6,30.13,SE,132,1.0,9.0,80,0.00,,,0.13,WUHU216DAVISVP2,2013-01-06 19:30:00,
2013-01-06 11:35:00,52.3,46.0,30.12,SE,134,4.0,6.0,79,0.00,,,0.13,WUHU216DAVISVP2,2013-01-06 19:35:00,
2013-01-06 11:40:00,52.2,45.9,30.12,SE,141,4.0,6.0,79,0.00,,,0.13,WUHU216DAVISVP2,2013-01-06 19:40:00,
2013-01-06 11:45:00,52.1,46.2,30.12,ESE,119,5.0,6.0,80,0.00,,,0.13,WUHU216DAVISVP2,2013-01-06 19:45:00,
2013-01-06 11:50:00,51.8,45.9,30.12,SSE,167,0.0,6.0,80,0.00,,,0.13,WUHU216DAVISVP2,2013-01-06 19:50:00,
2013-01-06 11:56:00,51.4,45.8,30.12,SE,144,2.0,7.0,81,0.00,,,0.13,WUHU216DAVISVP2,2013-01-06 19:56:00,
2013-01-06 12:01:00,51.3,45.7,30.11,SE,137,0.0,7.0,81,0.00,,,0.13,WUHU216DAVISVP2,2013-01-06 20:01:00,
2013-01-06 12:06:00,51.2,45.9,30.11,ESE,107,4.0,10.0,82,0.00,,,0.13,WUHU216DAVISVP2,2013-01-06 20:06:00,
2013-01-06 12:11:00,50.9,45.6,30.11,ESE,105,2.0,10.0,82,0.00,,,0.13,WUHU216DAVISVP2,2013-01-06 20:11:00,
2013-01-06 12:13:00,50.8,45.5,30.11,ESE,102,2.0,9.0,82,0.00,,,0.13,WUHU216DAVISVP2,2013-01-06 20:13:00,
2013-01-06 12:18:00,50.7,45.7,30.11,ESE,120,0.0,8.0,83,0.00,,,0.13,WUHU216DAVISVP2,2013-01-06 20:18:00,
2013-01-06 12:23:00,50.6,45.6,30.11,ESE,113,2.0,6.0,83,0.00,,,0.13,WUHU216DAVISVP2,2013-01-06 20:23:00,
2013-01-06 12:28:00,50.5,45.5,30.11,SE,132,4.0,6.0,83,0.00,,,0.13,WUHU216DAVISVP2,2013-01-06 20:28:00,
2013-01-06 12:33:00,50.4,45.4,30.11,ESE,106,5.0,6.0,83,0.00,,,0.13,WUHU216DAVISVP2,2013-01-06 20:33:00,
2013-01-06 12:38:00,50.3,45.3,30.11,ESE,111,1.0,6.0,83,0.00,,,0.13,WUHU216DAVISVP2,2013-01-06 20:38:00,
2013-01-06 12:43:00,50.4,45.4,30.10,ESE,111,4.0,6.0,83,0.00,,,0.13,WUHU216DAVISVP2,2013-01-06 20:43:00,
2013-01-06 12:48:00,50.4,45.4,30.10,ESE,109,2.0,5.0,83,0.00,,,0.13,WUHU216DAVISVP2,2013-01-06 20:48:00,
2013-01-06 12:53:00,50.3,45.3,30.10,East,98,0.0,5.0,83,0.00,,,0.13,WUHU216DAVISVP2,2013-01-06 20:53:00,
2013-01-06 12:58:00,50.4,45.7,30.10,East,98,1.0,5.0,84,0.00,,,0.13,WUHU216DAVISVP2,2013-01-06 20:58:00,
2013-01-06 13:01:00,50.4,45.4,30.10,East,98,0.0,5.0,83,0.00,,,0.13,WUHU216DAVISVP2,2013-01-06 21:01:00,
2013-01-06 13:06:00,50.6,45.6,30.09,ESE,114,5.0,5.0,83,0.00,,,0.13,WUHU216DAVISVP2,2013-01-06 21:06:00,
2013-01-06 13:11:00,50.6,45.6,30.09,ESE,114,0.0,5.0,83,0.00,,,0.13,WUHU216DAVISVP2,2013-01-06 21:11:00,
2013-01-06 13:16:00,50.6,45.6,30.09,ESE,113,1.0,4.0,83,0.00,,,0.13,WUHU216DAVISVP2,2013-01-06 21:16:00,
2013-01-06 13:21:00,50.8,45.8,30.10,ESE,113,2.0,4.0,83,0.00,,,0.13,WUHU216DAVISVP2,2013-01-06 21:21:00,
2013-01-06 13:26:00,50.9,45.6,30.09,ESE,113,1.0,4.0,82,0.00,,,0.13,WUHU216DAVISVP2,2013-01-06 21:26:00,
2013-01-06 13:31:00,51.2,45.9,30.09,ESE,113,4.0,4.0,82,0.00,,,0.13,WUHU216DAVISVP2,2013-01-06 21:31:00,
2013-01-06 13:36:00,51.6,46.3,30.09,ESE,111,0.0,4.0,82,0.00,,,0.13,WUHU216DAVISVP2,2013-01-06 21:36:00,
2013-01-06 13:41:00,51.5,45.9,30.09,ESE,111,0.0,4.0,81,0.00,,,0.13,WUHU216DAVISVP2,2013-01-06 21:41:00,
2013-01-06 13:46:00,51.4,45.2,30.09,ESE,111,0.0,4.0,79,0.00,,,0.13,WUHU216DAVISVP2,2013-01-06 21:46:00,
2013-01-06 13:51:00,51.2,45.0,30.09,ESE,111,0.0,4.0,79,0.00,,,0.13,WUHU216DAVISVP2,2013-01-06 21:51:00,
2013-01-06 13:56:00,51.3,45.4,30.09,ESE,111,0.0,2.0,80,0.00,,,0.13,WUHU216DAVISVP2,2013-01-06 21:56:00,
2013-01-06 14:01:00,51.5,45.2,30.09,ESE,111,0.0,4.0,79,0.00,,,0.13,WUHU216DAVISVP2,2013-01-06 22:01:00,
2013-01-06 14:06:00,51.2,45.0,30.09,ESE,111,0.0,4.0,79,0.00,,,0.13,WUHU216DAVISVP2,2013-01-06 22:06:00,
2013-01-06 14:11:00,51.4,45.2,30.09,ESE,111,0.0,1.0,79,0.00,,,0.13,WUHU216DAVISVP2,2013-01-06 22:11:00,
2013-01-06 14:16:00,51.2,44.6,30.09,ESE,111,2.0,2.0,78,0.00,,,0.13,WUHU216DAVISVP2,2013-01-06 22:16:00,
2013-01-06 14:21:00,51.4,44.8,30.09,ESE,111,0.0,2.0,78,0.00,,,0.13,WUHU216DAVISVP2,2013-01-06 22:21:00,
2013-01-06 14:26:00,51.2,44.3,30.09,ESE,111,0.0,1.0,77,0.00,,,0.13,WUHU216DAVISVP2,2013-01-06 22:26:00,
2013-01-06 14:31:00,51.2,44.6,30.09,ESE,111,0.0,1.0,78,0.00,,,0.13,WUHU216DAVISVP2,2013-01-06 22:31:00,
2013-01-06 14:36:00,51.2,44.6,30.09,ESE,111,0.0,0.0,78,0.00,,,0.13,WUHU216DAVISVP2,2013-01-06 22:36:00,
2013-01-06 14:41:00,51.3,44.7,30.09,ESE,111,0.0,1.0,78,0.00,,,0.13,WUHU216DAVISVP2,2013-01-06 22:41:00,
2013-01-06 14:46:00,51.2,44.6,30.09,NW,307,2.0,4.0,78,0.00,,,0.13,WUHU216DAVISVP2,2013-01-06 22:46:00,
2013-01-06 14:51:00,51.3,45.1,30.09,NW,307,0.0,4.0,79,0.00,,,0.13,WUHU216DAVISVP2,2013-01-06 22:51:00,
2013-01-06 14:56:00,51.2,45.0,30.09,NW,307,0.0,2.0,79,0.00,,,0.13,WUHU216DAVISVP2,2013-01-06 22:56:00,
2013-01-06 15:01:00,51.0,44.8,30.09,NW,307,1.0,3.0,79,0.00,,,0.13,WUHU216DAVISVP2,2013-01-06 23:01:00,
2013-01-06 15:06:00,51.1,45.2,30.09,NW,321,4.0,6.0,80,0.00,,,0.13,WUHU216DAVISVP2,2013-01-06 23:06:00,
2013-01-06 15:11:00,50.8,45.8,30.10,NW,313,4.0,6.0,83,0.00,,,0.13,WUHU216DAVISVP2,2013-01-06 23:11:00,
2013-01-06 15:16:00,50.4,46.1,30.10,NW,316,6.0,7.0,85,0.00,,,0.13,WUHU216DAVISVP2,2013-01-06 23:16:00,
2013-01-06 15:21:00,50.1,45.8,30.10,NW,313,6.0,8.0,85,0.00,,,0.13,WUHU216DAVISVP2,2013-01-06 23:21:00,
2013-01-06 15:26:00,49.9,45.6,30.10,NW,309,2.0,8.0,85,0.00,,,0.13,WUHU216DAVISVP2,2013-01-06 23:26:00,
2013-01-06 15:31:00,50.1,46.1,30.10,NW,319,4.0,7.0,86,0.00,,,0.13,WUHU216DAVISVP2,2013-01-06 23:31:00,
2013-01-06 15:36:00,50.1,46.1,30.10,NW,319,5.0,7.0,86,0.00,,,0.13,WUHU216DAVISVP2,2013-01-06 23:36:00,
2013-01-06 15:41:00,50.2,46.2,30.10,NNW,332,2.0,7.0,86,0.00,,,0.13,WUHU216DAVISVP2,2013-01-06 23:41:00,
2013-01-06 15:46:00,50.2,46.5,30.10,NNW,329,3.0,6.0,87,0.00,,,0.13,WUHU216DAVISVP2,2013-01-06 23:46:00,
2013-01-06 15:51:00,50.1,46.7,30.11,NNW,331,3.0,8.0,88,0.00,,,0.13,WUHU216DAVISVP2,2013-01-06 23:51:00,
2013-01-06 15:56:00,49.8,46.4,30.10,NNW,341,6.0,8.0,88,0.00,,,0.13,WUHU216DAVISVP2,2013-01-06 23:56:00,
2013-01-06 16:01:00,49.7,46.3,30.10,NNW,344,2.0,7.0,88,0.00,,,0.13,WUHU216DAVISVP2,2013-01-07 00:01:00,
2013-01-06 16:06:00,49.7,46.3,30.10,NNW,335,0.0,7.0,88,0.00,,,0.13,WUHU216DAVISVP2,2013-01-07 00:06:00,
2013-01-06 16:11:00,49.7,46.6,30.10,NNW,335,3.0,5.0,89,0.00,,,0.13,WUHU216DAVISVP2,2013-01-07 00:11:00,
2013-01-06 16:16:00,49.5,46.4,30.11,NNW,336,3.0,5.0,89,0.00,,,0.13,WUHU216DAVISVP2,2013-01-07 00:16:00,
2013-01-06 16:21:00,49.3,46.2,30.11,North,349,4.0,6.0,89,0.00,,,0.13,WUHU216DAVISVP2,2013-01-07 00:21:00,
2013-01-06 16:26:00,49.0,45.9,30.10,North,355,0.0,6.0,89,0.00,,,0.13,WUHU216DAVISVP2,2013-01-07 00:26:00,
2013-01-06 16:31:00,48.8,46.0,30.10,North,355,1.0,6.0,90,0.00,,,0.13,WUHU216DAVISVP2,2013-01-07 00:31:00,
2013-01-06 16:36:00,48.7,45.9,30.10,NNW,347,1.0,4.0,90,0.00,,,0.13,WUHU216DAVISVP2,2013-01-07 00:36:00,
2013-01-06 16:41:00,48.4,45.6,30.10,NNW,347,2.0,4.0,90,0.00,,,0.13,WUHU216DAVISVP2,2013-01-07 00:41:00,
2013-01-06 16:46:00,48.2,45.4,30.10,NNW,347,2.0,5.0,90,0.00,,,0.13,WUHU216DAVISVP2,2013-01-07 00:46:00,
2013-01-06 16:51:00,48.0,45.2,30.10,NNW,347,1.0,5.0,90,0.00,,,0.13,WUHU216DAVISVP2,2013-01-07 00:51:00,
2013-01-06 16:56:00,47.8,45.0,30.10,NNW,347,0.0,4.0,90,0.00,,,0.13,WUHU216DAVISVP2,2013-01-07 00:56:00,
2013-01-06 17:01:00,47.6,45.1,30.10,NNW,347,2.0,4.0,91,0.00,,,0.13,WUHU216DAVISVP2,2013-01-07 01:01:00,
2013-01-06 17:06:00,47.3,44.8,30.09,NNW,347,0.0,2.0,91,0.00,,,0.13,WUHU216DAVISVP2,2013-01-07 01:06:00,
2013-01-06 17:11:00,47.0,44.8,30.10,NNW,347,2.0,3.0,92,0.00,,,0.13,WUHU216DAVISVP2,2013-01-07 01:11:00,
2013-01-06 17:16:00,46.7,44.5,30.10,NNW,347,1.0,3.0,92,0.00,,,0.13,WUHU216DAVISVP2,2013-01-07 01:16:00,
2013-01-06 17:21:00,46.4,44.4,30.10,NNW,347,1.0,5.0,93,0.00,,,0.13,WUHU216DAVISVP2,2013-01-07 01:21:00,
2013-01-06 17:26:00,46.4,44.7,30.10,NNW,347,0.0,5.0,94,0.00,,,0.13,WUHU216DAVISVP2,2013-01-07 01:26:00,
2013-01-06 17:31:00,46.3,44.6,30.10,NNW,347,2.0,4.0,94,0.00,,,0.13,WUHU216DAVISVP2,2013-01-07 01:31:00,
2013-01-06 17:36:00,46.1,44.4,30.10,NNW,347,2.0,4.0,94,0.00,,,0.13,WUHU216DAVISVP2,2013-01-07 01:36:00,
2013-01-06 17:41:00,46.0,44.3,30.10,NNW,347,0.0,5.0,94,0.00,,,0.13,WUHU216DAVISVP2,2013-01-07 01:41:00,
2013-01-06 17:46:00,45.9,44.2,30.10,NNW,346,1.0,5.0,94,0.00,,,0.13,WUHU216DAVISVP2,2013-01-07 01:46:00,
2013-01-06 17:51:00,45.8,44.4,30.10,NNW,342,4.0,5.0,95,0.00,,,0.13,WUHU216DAVISVP2,2013-01-07 01:51:00,
2013-01-06 17:56:00,45.6,44.2,30.10,NNW,343,2.0,5.0,95,0.00,,,0.13,WUHU216DAVISVP2,2013-01-07 01:56:00,
2013-01-06 18:01:00,45.5,44.1,30.10,NNW,342,2.0,5.0,95,0.00,,,0.13,WUHU216DAVISVP2,2013-01-07 02:01:00,
2013-01-06 18:06:00,45.5,44.1,30.10,NNW,344,2.0,6.0,95,0.00,,,0.13,WUHU216DAVISVP2,2013-01-07 02:06:00,
2013-01-06 18:11:00,45.5,44.1,30.11,NW,315,3.0,7.0,95,0.00,,,0.13,WUHU216DAVISVP2,2013-01-07 02:11:00,
2013-01-06 18:16:00,45.6,44.2,30.11,NW,309,5.0,7.0,95,0.00,,,0.13,WUHU216DAVISVP2,2013-01-07 02:16:00,
2013-01-06 18:21:00,45.6,44.2,30.11,WNW,299,4.0,7.0,95,0.00,,,0.13,WUHU216DAVISVP2,2013-01-07 02:21:00,
2013-01-06 18:26:00,45.8,44.4,30.12,NW,311,3.0,9.0,95,0.00,,,0.13,WUHU216DAVISVP2,2013-01-07 02:26:00,
2013-01-06 18:31:00,45.9,44.8,30.12,NW,321,7.0,9.0,96,0.00,,,0.13,WUHU216DAVISVP2,2013-01-07 02:31:00,
2013-01-06 18:36:00,46.0,44.9,30.12,WNW,296,5.0,8.0,96,0.00,,,0.13,WUHU216DAVISVP2,2013-01-07 02:36:00,
2013-01-06 18:41:00,46.1,45.0,30.12,NNW,333,10.0,10.0,96,0.00,,,0.13,WUHU216DAVISVP2,2013-01-07 02:41:00,
2013-01-06 18:46:00,46.2,44.8,30.12,NNW,339,5.0,10.0,95,0.00,,,0.13,WUHU216DAVISVP2,2013-01-07 02:46:00,
2013-01-06 18:51:00,46.1,44.7,30.12,NW,309,6.0,10.0,95,0.00,,,0.13,WUHU216DAVISVP2,2013-01-07 02:51:00,
2013-01-06 18:56:00,45.9,44.5,30.12,WNW,292,6.0,10.0,95,0.00,,,0.13,WUHU216DAVISVP2,2013-01-07 02:56:00,
2013-01-06 19:01:00,45.7,44.3,30.12,NNW,330,5.0,10.0,95,0.00,,,0.13,WUHU216DAVISVP2,2013-01-07 03:01:00,
2013-01-06 19:06:00,45.5,44.1,30.12,NW,319,1.0,10.0,95,0.00,,,0.13,WUHU216DAVISVP2,2013-01-07 03:06:00,
2013-01-06 19:11:00,45.4,44.0,30.12,WNW,298,9.0,10.0,95,0.00,,,0.13,WUHU216DAVISVP2,2013-01-07 03:11:00,
2013-01-06 19:16:00,45.3,43.9,30.11,WNW,288,2.0,10.0,95,0.00,,,0.13,WUHU216DAVISVP2,2013-01-07 03:16:00,
2013-01-06 19:21:00,45.2,43.8,30.11,WNW,301,3.0,10.0,95,0.00,,,0.13,WUHU216DAVISVP2,2013-01-07 03:21:00,
2013-01-06 19:26:00,45.1,43.7,30.12,NW,320,5.0,10.0,95,0.00,,,0.13,WUHU216DAVISVP2,2013-01-07 03:26:00,
2013-01-06 19:31:00,45.1,43.7,30.12,NW,315,5.0,9.0,95,0.00,,,0.13,WUHU216DAVISVP2,2013-01-07 03:31:00,
2013-01-06 19:36:00,45.0,43.6,30.12,NW,307,5.0,9.0,95,0.00,,,0.13,WUHU216DAVISVP2,2013-01-07 03:36:00,
2013-01-06 19:41:00,44.9,43.5,30.12,WNW,292,8.0,10.0,95,0.00,,,0.13,WUHU216DAVISVP2,2013-01-07 03:41:00,
2013-01-06 19:46:00,44.8,43.4,30.12,NW,313,3.0,10.0,95,0.00,,,0.13,WUHU216DAVISVP2,2013-01-07 03:46:00,
2013-01-06 19:51:00,44.7,43.3,30.12,NW,321,4.0,10.0,95,0.00,,,0.13,WUHU216DAVISVP2,2013-01-07 03:51:00,
2013-01-06 19:56:00,44.5,43.1,30.12,NW,321,4.0,9.0,95,0.00,,,0.13,WUHU216DAVISVP2,2013-01-07 03:56:00,
2013-01-06 20:01:00,44.3,42.9,30.12,NW,310,4.0,9.0,95,0.00,,,0.13,WUHU216DAVISVP2,2013-01-07 04:01:00,
2013-01-06 20:06:00,44.2,42.8,30.13,NW,321,8.0,9.0,95,0.00,,,0.13,WUHU216DAVISVP2,2013-01-07 04:06:00,
2013-01-06 20:11:00,44.2,42.8,30.14,NW,308,8.0,10.0,95,0.00,,,0.13,WUHU216DAVISVP2,2013-01-07 04:11:00,
2013-01-06 20:16:00,44.0,42.6,30.14,NW,304,5.0,10.0,95,0.00,,,0.13,WUHU216DAVISVP2,2013-01-07 04:16:00,
2013-01-06 20:21:00,44.0,42.6,30.14,NW,316,5.0,8.0,95,0.00,,,0.13,WUHU216DAVISVP2,2013-01-07 04:21:00,
2013-01-06 20:26:00,43.8,42.4,30.14,NW,325,4.0,7.0,95,0.00,,,0.13,WUHU216DAVISVP2,2013-01-07 04:26:00,
2013-01-06 20:31:00,43.7,42.3,30.14,NNW,328,5.0,7.0,95,0.00,,,0.13,WUHU216DAVISVP2,2013-01-07 04:31:00,
2013-01-06 20:36:00,43.6,42.2,30.13,NW,325,3.0,9.0,95,0.00,,,0.13,WUHU216DAVISVP2,2013-01-07 04:36:00,
2013-01-06 20:41:00,43.5,42.1,30.14,NW,311,3.0,9.0,95,0.00,,,0.13,WUHU216DAVISVP2,2013-01-07 04:41:00,
2013-01-06 20:46:00,43.4,42.0,30.14,NW,312,5.0,6.0,95,0.00,,,0.13,WUHU216DAVISVP2,2013-01-07 04:46:00,
2013-01-06 20:51:00,43.3,41.9,30.14,NW,317,5.0,6.0,95,0.00,,,0.13,WUHU216DAVISVP2,2013-01-07 04:51:00,
2013-01-06 20:56:00,43.3,41.9,30.14,NW,317,0.0,6.0,95,0.00,,,0.13,WUHU216DAVISVP2,2013-01-07 04:56:00,
2013-01-06 21:00:00,43.2,41.8,30.14,NW,311,1.0,6.0,95,0.00,,,0.13,WUHU216DAVISVP2,2013-01-07 05:00:00,
2013-01-06 21:01:00,43.2,41.8,30.14,NW,311,2.0,6.0,95,0.00,,,0.13,WUHU216DAVISVP2,2013-01-07 05:01:00,
2013-01-06 21:06:00,43.0,41.6,30.14,NW,311,2.0,4.0,95,0.00,,,0.13,WUHU216DAVISVP2,2013-01-07 05:06:00,
2013-01-06 21:11:00,42.9,41.5,30.15,NW,311,0.0,4.0,95,0.00,,,0.13,WUHU216DAVISVP2,2013-01-07 05:11:00,
2013-01-06 21:16:00,42.8,41.4,30.15,NW,311,2.0,4.0,95,0.00,,,0.13,WUHU216DAVISVP2,2013-01-07 05:16:00,
2013-01-06 21:21:00,42.7,41.3,30.16,NW,311,1.0,3.0,95,0.00,,,0.13,WUHU216DAVISVP2,2013-01-07 05:21:00,
2013-01-06 21:26:00,42.5,41.1,30.16,NW,311,0.0,3.0,95,0.00,,,0.13,WUHU216DAVISVP2,2013-01-07 05:26:00,
2013-01-06 21:31:00,42.4,41.0,30.16,NW,311,1.0,3.0,95,0.00,,,0.13,WUHU216DAVISVP2,2013-01-07 05:31:00,
2013-01-06 21:36:00,42.3,40.9,30.16,NW,311,0.0,4.0,95,0.00,,,0.13,WUHU216DAVISVP2,2013-01-07 05:36:00,
2013-01-06 21:41:00,42.3,40.9,30.16,NW,311,1.0,4.0,95,0.00,,,0.13,WUHU216DAVISVP2,2013-01-07 05:41:00,
2013-01-06 21:46:00,42.4,41.3,30.16,NW,311,2.0,5.0,96,0.00,,,0.13,WUHU216DAVISVP2,2013-01-07 05:46:00,
2013-01-06 21:51:00,42.5,41.4,30.16,NW,311,5.0,5.0,96,0.00,,,0.13,WUHU216DAVISVP2,2013-01-07 05:51:00,
2013-01-06 21:56:00,42.6,41.5,30.17,NW,325,2.0,7.0,96,0.00,,,0.13,WUHU216DAVISVP2,2013-01-07 05:56:00,
2013-01-06 22:01:00,42.7,41.6,30.17,NW,313,2.0,7.0,96,0.00,,,0.13,WUHU216DAVISVP2,2013-01-07 06:01:00,
2013-01-06 22:06:00,42.8,41.7,30.17,NNW,327,7.0,7.0,96,0.00,,,0.13,WUHU216DAVISVP2,2013-01-07 06:06:00,
2013-01-06 22:11:00,43.0,41.9,30.17,NW,312,5.0,7.0,96,0.00,,,0.13,WUHU216DAVISVP2,2013-01-07 06:11:00,
2013-01-06 22:16:00,43.1,42.0,30.17,NW,318,3.0,7.0,96,0.00,,,0.13,WUHU216DAVISVP2,2013-01-07 06:16:00,
2013-01-06 22:21:00,43.2,42.1,30.17,NW,321,4.0,6.0,96,0.00,,,0.13,WUHU216DAVISVP2,2013-01-07 06:21:00,
2013-01-06 22:26:00,43.2,42.1,30.17,NW,321,3.0,5.0,96,0.00,,,0.13,WUHU216DAVISVP2,2013-01-07 06:26:00,
2013-01-06 22:31:00,43.3,42.2,30.17,NW,322,1.0,5.0,96,0.00,,,0.13,WUHU216DAVISVP2,2013-01-07 06:31:00,
2013-01-06 22:36:00,43.3,42.2,30.17,NW,322,2.0,5.0,96,0.00,,,0.13,WUHU216DAVISVP2,2013-01-07 06:36:00,
2013-01-06 22:41:00,43.4,42.3,30.17,NW,322,1.0,4.0,96,0.00,,,0.13,WUHU216DAVISVP2,2013-01-07 06:41:00,
2013-01-06 22:46:00,43.4,42.3,30.17,NNW,342,2.0,5.0,96,0.00,,,0.13,WUHU216DAVISVP2,2013-01-07 06:46:00,
2013-01-06 22:51:00,43.5,42.4,30.17,NNW,342,5.0,5.0,96,0.00,,,0.13,WUHU216DAVISVP2,2013-01-07 06:51:00,
2013-01-06 22:56:00,43.6,42.5,30.17,NNW,342,2.0,5.0,96,0.00,,,0.13,WUHU216DAVISVP2,2013-01-07 06:56:00,
2013-01-06 23:01:00,43.7,42.6,30.17,NNW,342,0.0,5.0,96,0.00,,,0.13,WUHU216DAVISVP2,2013-01-07 07:01:00,
2013-01-06 23:06:00,43.8,42.7,30.17,NNW,342,2.0,5.0,96,0.00,,,0.13,WUHU216DAVISVP2,2013-01-07 07:06:00,
2013-01-06 23:11:00,43.9,42.8,30.17,North,355,4.0,5.0,96,0.00,,,0.13,WUHU216DAVISVP2,2013-01-07 07:11:00,
2013-01-06 23:16:00,44.0,42.9,30.17,North,355,3.0,6.0,96,0.00,,,0.13,WUHU216DAVISVP2,2013-01-07 07:16:00,
2013-01-06 23:21:00,44.0,43.2,30.16,North,350,2.0,6.0,97,0.00,,,0.13,WUHU216DAVISVP2,2013-01-07 07:21:00,
2013-01-06 23:26:00,44.1,43.3,30.17,North,350,3.0,5.0,97,0.00,,,0.13,WUHU216DAVISVP2,2013-01-07 07:26:00,
2013-01-06 23:31:00,44.1,43.3,30.16,North,350,0.0,4.0,97,0.00,,,0.13,WUHU216DAVISVP2,2013-01-07 07:31:00,
2013-01-06 23:36:00,44.1,43.3,30.16,North,350,0.0,3.0,97,0.00,,,0.13,WUHU216DAVISVP2,2013-01-07 07:36:00,
2013-01-06 23:41:00,44.1,43.3,30.15,North,350,1.0,3.0,97,0.00,,,0.13,WUHU216DAVISVP2,2013-01-07 07:41:00,
2013-01-06 23:46:00,44.1,43.3,30.15,North,350,0.0,2.0,97,0.00,,,0.13,WUHU216DAVISVP2,2013-01-07 07:46:00,
2013-01-06 23:51:00,44.1,43.3,30.15,North,350,0.0,0.0,97,0.00,,,0.13,WUHU216DAVISVP2,2013-01-07 07:51:00,
2013-01-06 23:56:00,44.2,43.4,30.15,North,350,0.0,0.0,97,0.00,,,0.13,WUHU216DAVISVP2,2013-01-07 07:56:00,